createdAt,value
2022-10-17T00:01:14.468Z,100352.98
2022-10-17T00:03:42.681Z,100352.12
2022-10-17T00:06:14.142Z,100350.88
2022-10-17T00:08:43.605Z,100351.76
2022-10-17T00:11:22.256Z,100356.13
2022-10-17T00:13:53.912Z,100355.79
2022-10-17T00:16:36.619Z,100356.67
2022-10-17T00:19:06.747Z,100357.89
2022-10-17T00:21:34.818Z,100363.15
2022-10-17T00:24:02.786Z,100364.20
2022-10-17T00:26:30.856Z,100365.60
2022-10-17T00:28:58.997Z,100367.88
2022-10-17T00:31:27.463Z,100364.55
2022-10-17T00:33:58.655Z,100364.02
2022-10-17T00:36:27.033Z,100364.55
2022-10-17T00:38:59.413Z,100365.78
2022-10-17T00:41:32.210Z,100369.27
2022-10-17T00:44:31.493Z,100370.50
2022-10-17T00:47:06.321Z,100368.92
2022-10-17T00:49:39.000Z,100370.50
2022-10-17T00:52:15.778Z,100367.88
2022-10-17T00:54:52.142Z,100366.14
2022-10-17T00:57:20.732Z,100367.52
2022-10-17T00:59:53.096Z,100371.05
2022-10-17T01:02:22.708Z,100370.85
2022-10-17T01:04:53.438Z,100373.13
2022-10-17T01:07:21.886Z,100375.75
2022-10-17T01:09:51.629Z,100376.11
2022-10-17T01:12:26.565Z,100375.40
2022-10-17T01:15:14.191Z,100379.96
2022-10-17T01:17:48.011Z,100379.92
2022-10-17T01:20:34.297Z,100381.31
2022-10-17T01:23:30.323Z,100382.21
2022-10-17T01:26:13.754Z,100380.61
2022-10-17T01:29:00.360Z,100379.04
2022-10-17T01:31:40.616Z,100379.05
2022-10-17T01:34:19.339Z,100377.46
2022-10-17T01:37:04.307Z,100379.39
2022-10-17T01:39:52.139Z,100377.47
2022-10-17T01:42:31.012Z,100382.54
2022-10-17T01:45:20.027Z,100387.10
2022-10-17T01:47:52.641Z,100386.38
2022-10-17T01:50:28.561Z,100389.19
2022-10-17T01:53:13.629Z,100389.19
2022-10-17T01:55:45.966Z,100388.14
2022-10-17T01:58:20.731Z,100389.54
2022-10-17T02:01:30.967Z,100389.55
2022-10-17T02:04:03.919Z,100389.88
2022-10-17T02:06:35.631Z,100385.86
2022-10-17T02:09:20.605Z,100386.74
2022-10-17T02:12:16.216Z,100389.70
2022-10-17T02:15:00.363Z,100392.52
2022-10-17T02:18:06.326Z,100391.80
2022-10-17T02:20:45.147Z,100391.80
2022-10-17T02:23:39.741Z,100393.55
2022-10-17T02:26:18.238Z,100397.41
2022-10-17T02:29:06.504Z,100399.16
2022-10-17T02:31:56.383Z,100404.77
2022-10-17T02:34:27.119Z,100404.76
2022-10-17T02:37:02.356Z,100400.56
2022-10-17T02:39:33.205Z,100398.63
2022-10-17T02:42:06.181Z,100396.00
2022-10-17T02:44:35.888Z,100395.64
2022-10-17T02:47:17.785Z,100394.77
2022-10-17T02:49:50.465Z,100401.06
2022-10-17T02:52:28.124Z,100399.66
2022-10-17T02:55:01.455Z,100405.08
2022-10-17T02:57:40.482Z,100405.77
2022-10-17T03:00:12.174Z,100407.88
2022-10-17T03:02:40.723Z,100412.79
2022-10-17T03:05:11.228Z,100404.02
2022-10-17T03:07:39.322Z,100406.48
2022-10-17T03:10:08.726Z,100406.31
2022-10-17T03:12:37.824Z,100408.92
2022-10-17T03:15:06.789Z,100409.44
2022-10-17T03:17:36.144Z,100412.08
2022-10-17T03:20:05.307Z,100411.38
2022-10-17T03:22:33.997Z,100416.26
2022-10-17T03:25:03.913Z,100414.67
2022-10-17T03:27:32.309Z,100418.16
2022-10-17T03:30:00.667Z,100419.41
2022-10-17T03:32:29.969Z,100417.48
2022-10-17T03:34:57.937Z,100420.45
2022-10-17T03:37:26.195Z,100425.17
2022-10-17T03:39:54.490Z,100428.69
2022-10-17T03:42:22.664Z,100433.77
2022-10-17T03:44:50.736Z,100437.79
2022-10-17T03:47:18.807Z,100437.59
2022-10-17T03:49:47.287Z,100435.66
2022-10-17T03:52:16.305Z,100438.10
2022-10-17T03:54:44.556Z,100443.51
2022-10-17T03:57:12.525Z,100444.20
2022-10-17T03:59:40.903Z,100447.02
2022-10-17T04:02:13.685Z,100447.54
2022-10-17T04:04:41.757Z,100448.58
2022-10-17T04:07:09.731Z,100450.33
2022-10-17T04:09:39.845Z,100451.91
2022-10-17T04:12:12.528Z,100456.29
2022-10-17T04:14:41.210Z,100456.27
2022-10-17T04:17:10.203Z,100457.67
2022-10-17T04:19:38.890Z,100463.80
2022-10-17T04:22:08.701Z,100463.08
2022-10-17T04:24:38.719Z,100466.06
2022-10-17T04:27:22.251Z,100463.09
2022-10-17T04:29:50.324Z,100461.70
2022-10-17T04:32:22.695Z,100463.43
2022-10-17T04:35:07.887Z,100466.94
2022-10-17T04:37:35.941Z,100467.29
2022-10-17T04:40:09.945Z,100464.14
2022-10-17T04:42:38.431Z,100463.25
2022-10-17T04:45:08.063Z,100467.80
2022-10-17T04:47:36.621Z,100472.85
2022-10-17T04:50:05.895Z,100478.44
2022-10-17T04:52:37.619Z,100475.45
2022-10-17T04:55:06.693Z,100476.35
2022-10-17T04:57:36.167Z,100478.63
2022-10-17T05:00:14.061Z,100478.25
2022-10-17T05:03:11.335Z,100481.05
2022-10-17T05:05:40.522Z,100482.46
2022-10-17T05:08:10.961Z,100490.84
2022-10-17T05:10:41.489Z,100492.58
2022-10-17T05:13:10.381Z,100498.00
2022-10-17T05:15:38.725Z,100501.66
2022-10-17T05:18:07.545Z,100501.31
2022-10-17T05:20:35.821Z,100497.46
2022-10-17T05:23:03.896Z,100497.66
2022-10-17T05:25:35.855Z,100496.09
2022-10-17T05:28:03.926Z,100498.36
2022-10-17T05:30:35.211Z,100499.23
2022-10-17T05:33:06.315Z,100498.19
2022-10-17T05:35:36.333Z,100500.64
2022-10-17T05:38:04.610Z,100512.89
2022-10-17T05:40:34.830Z,100517.78
2022-10-17T05:43:03.823Z,100520.75
2022-10-17T05:45:32.099Z,100525.13
2022-10-17T05:48:00.581Z,100526.73
2022-10-17T05:50:29.369Z,100530.58
2022-10-17T05:53:03.176Z,100533.92
2022-10-17T05:55:31.555Z,100536.91
2022-10-17T05:58:03.095Z,100539.20
2022-10-17T06:00:35.344Z,100542.37
2022-10-17T06:03:03.550Z,100545.88
2022-10-17T06:05:31.622Z,100551.84
2022-10-17T06:08:01.983Z,100554.65
2022-10-17T06:10:33.192Z,100556.75
2022-10-17T06:13:01.482Z,100557.11
2022-10-17T06:15:30.461Z,100557.85
2022-10-17T06:18:06.212Z,100553.84
2022-10-17T06:20:34.487Z,100559.98
2022-10-17T06:23:04.051Z,100563.67
2022-10-17T06:25:49.372Z,100566.15
2022-10-17T06:28:17.644Z,100568.45
2022-10-17T06:30:45.822Z,100566.52
2022-10-17T06:33:13.788Z,100562.33
2022-10-17T06:35:41.860Z,100557.96
2022-10-17T06:38:10.217Z,100560.07
2022-10-17T06:40:38.721Z,100562.88
2022-10-17T06:43:07.610Z,100572.58
2022-10-17T06:45:59.031Z,100575.92
2022-10-17T06:48:39.183Z,100578.90
2022-10-17T06:51:30.803Z,100578.39
2022-10-17T06:54:00.311Z,100581.91
2022-10-17T06:56:48.863Z,100580.88
2022-10-17T06:59:31.885Z,100581.59
2022-10-17T07:02:06.716Z,100583.88
2022-10-17T07:04:34.991Z,100585.12
2022-10-17T07:07:03.578Z,100590.20
2022-10-17T07:09:33.908Z,100592.48
2022-10-17T07:12:02.891Z,100592.68
2022-10-17T07:14:32.236Z,100593.73
2022-10-17T07:17:01.959Z,100598.48
2022-10-17T07:19:32.839Z,100597.79
2022-10-17T07:22:01.087Z,100600.08
2022-10-17T07:24:29.290Z,100601.84
2022-10-17T07:27:04.121Z,100605.70
2022-10-17T07:29:32.191Z,100603.95
2022-10-17T07:32:12.451Z,100607.11
2022-10-17T07:34:41.443Z,100604.48
2022-10-17T07:37:10.948Z,100602.55
2022-10-17T07:39:41.885Z,100605.54
2022-10-17T07:42:10.878Z,100609.39
2022-10-17T07:44:39.050Z,100610.98
2022-10-17T07:47:07.430Z,100612.76
2022-10-17T07:49:42.686Z,100617.13
2022-10-17T07:52:12.378Z,100617.12
2022-10-17T07:54:41.054Z,100619.58
2022-10-17T07:57:09.430Z,100620.42
2022-10-17T07:59:38.600Z,100624.81
2022-10-17T08:02:08.350Z,100621.11
2022-10-17T08:04:36.732Z,100623.02
2022-10-17T08:07:18.628Z,100622.50
2022-10-17T08:09:48.948Z,100620.55
2022-10-17T08:12:17.019Z,100620.36
2022-10-17T08:14:45.091Z,100618.05
2022-10-17T08:17:13.162Z,100613.80
2022-10-17T08:19:41.440Z,100612.70
2022-10-17T08:22:09.714Z,100617.23
2022-10-17T08:24:38.094Z,100617.02
2022-10-17T08:27:11.723Z,100619.80
2022-10-17T08:29:41.151Z,100618.19
2022-10-17T08:32:10.338Z,100621.50
2022-10-17T08:34:38.571Z,100621.64
2022-10-17T08:37:06.706Z,100618.45
2022-10-17T08:39:34.918Z,100622.98
2022-10-17T08:42:05.960Z,100619.25
2022-10-17T08:44:57.280Z,100620.77
2022-10-17T08:47:35.997Z,100620.21
2022-10-17T08:50:07.548Z,100625.24
2022-10-17T08:52:39.007Z,100628.88
2022-10-17T08:55:28.065Z,100623.19
2022-10-17T08:57:56.237Z,100622.93
2022-10-17T09:00:26.357Z,100622.71
2022-10-17T09:03:10.175Z,100621.25
2022-10-17T09:05:50.859Z,100624.49
2022-10-17T09:08:24.771Z,100626.14
2022-10-17T09:11:31.347Z,100627.64
2022-10-17T09:13:59.316Z,100630.67
2022-10-17T09:16:55.342Z,100625.23
2022-10-17T09:19:28.817Z,100624.56
2022-10-17T09:22:05.927Z,100625.48
2022-10-17T09:24:57.651Z,100625.38
2022-10-17T09:27:36.945Z,100619.61
2022-10-17T09:30:46.177Z,100619.36
2022-10-17T09:33:35.058Z,100622.59
2022-10-17T09:36:23.229Z,100625.70
2022-10-17T09:38:57.913Z,100624.54
2022-10-17T09:41:46.408Z,100628.70
2022-10-17T09:44:17.761Z,100628.80
2022-10-17T09:47:10.497Z,100628.36
2022-10-17T09:49:41.845Z,100629.35
2022-10-17T09:52:35.633Z,100629.84
2022-10-17T09:55:18.456Z,100628.36
2022-10-17T09:57:52.241Z,100628.43
2022-10-17T10:00:26.610Z,100628.11
2022-10-17T10:03:12.961Z,100628.84
2022-10-17T10:05:41.852Z,100630.09
2022-10-17T10:08:18.012Z,100625.40
2022-10-17T10:10:46.493Z,100626.30
2022-10-17T10:13:14.468Z,100625.28
2022-10-17T10:15:47.759Z,100623.20
2022-10-17T10:18:25.274Z,100623.02
2022-10-17T10:21:18.591Z,100625.15
2022-10-17T10:24:03.889Z,100624.11
2022-10-17T10:26:55.231Z,100624.50
2022-10-17T10:29:37.409Z,100619.95
2022-10-17T10:32:22.578Z,100620.70
2022-10-17T10:35:22.087Z,100616.11
2022-10-17T10:37:53.128Z,100615.23
2022-10-17T10:40:46.798Z,100613.67
2022-10-17T10:43:38.090Z,100611.38
2022-10-17T10:46:17.757Z,100606.17
2022-10-17T10:48:59.705Z,100603.09
2022-10-17T10:51:40.831Z,100598.56
2022-10-17T10:54:28.318Z,100600.90
2022-10-17T10:57:00.526Z,100599.20
2022-10-17T11:00:25.083Z,100596.83
2022-10-17T11:03:19.205Z,100595.28
2022-10-17T11:05:56.492Z,100594.85
2022-10-17T11:08:35.622Z,100591.07
2022-10-17T11:11:09.531Z,100589.73
2022-10-17T11:13:43.847Z,100581.78
2022-10-17T11:16:40.079Z,100580.91
2022-10-17T11:19:38.873Z,100580.05
2022-10-17T11:22:31.302Z,100580.81
2022-10-17T11:25:05.222Z,100583.35
2022-10-17T11:27:35.445Z,100583.54
2022-10-17T11:30:04.533Z,100583.02
2022-10-17T11:32:40.804Z,100579.17
2022-10-17T11:35:15.137Z,100578.50
2022-10-17T11:37:50.258Z,100573.41
2022-10-17T11:40:26.015Z,100571.83
2022-10-17T11:43:02.272Z,100570.95
2022-10-17T11:45:40.869Z,100568.14
2022-10-17T11:48:22.582Z,100568.67
2022-10-17T11:53:48.317Z,100567.10
2022-10-17T11:56:26.936Z,100567.87
2022-10-17T11:59:25.626Z,100565.02
2022-10-17T12:02:01.889Z,100561.28
2022-10-17T12:04:59.451Z,100562.81
2022-10-17T12:07:27.638Z,100559.11
2022-10-17T12:09:58.870Z,100556.98
2022-10-17T12:12:32.716Z,100553.21
2022-10-17T12:15:23.496Z,100552.50
2022-10-17T12:18:17.477Z,100557.09
2022-10-17T12:20:57.645Z,100553.73
2022-10-17T12:23:30.397Z,100550.88
2022-10-17T12:26:05.418Z,100549.58
2022-10-17T12:28:45.199Z,100544.58
2022-10-17T12:31:15.907Z,100541.19
2022-10-17T12:33:49.904Z,100537.08
2022-10-17T12:36:17.889Z,100536.70
2022-10-17T12:38:52.311Z,100531.39
2022-10-17T12:41:38.862Z,100528.73
2022-10-17T12:44:13.237Z,100527.48
2022-10-17T12:46:49.598Z,100525.70
2022-10-17T12:49:23.983Z,100528.11
2022-10-17T12:52:11.547Z,100527.18
2022-10-17T12:54:47.284Z,100523.40
2022-10-17T12:57:31.166Z,100520.66
2022-10-17T13:00:05.354Z,100520.83
2022-10-17T13:02:33.950Z,100519.41
2022-10-17T13:05:14.913Z,100518.89
2022-10-17T13:07:45.272Z,100520.59
2022-10-17T13:10:22.906Z,100521.11
2022-10-17T13:12:54.181Z,100518.48
2022-10-17T13:15:22.689Z,100514.20
2022-10-17T13:18:01.499Z,100513.25
2022-10-17T13:20:31.990Z,100510.05
2022-10-17T13:23:00.291Z,100507.91
2022-10-17T13:25:28.667Z,100508.25
2022-10-17T13:28:12.582Z,100512.16
2022-10-17T13:30:48.571Z,100507.89
2022-10-17T13:33:35.582Z,100507.50
2022-10-17T13:36:07.852Z,100508.38
2022-10-17T13:38:40.344Z,100509.96
2022-10-17T13:41:34.776Z,100512.42
2022-10-17T13:44:12.207Z,100509.95
2022-10-17T13:46:41.028Z,100505.52
2022-10-17T13:49:25.750Z,100503.92
2022-10-17T13:51:58.541Z,100499.45
2022-10-17T13:54:34.804Z,100499.92
2022-10-17T13:57:04.924Z,100499.05
2022-10-17T13:59:39.871Z,100499.56
2022-10-17T14:02:15.813Z,100502.19
2022-10-17T14:05:15.780Z,100501.83
2022-10-17T14:07:58.130Z,100502.86
2022-10-17T14:10:27.974Z,100499.27
2022-10-17T14:12:56.633Z,100501.22
2022-10-17T14:15:30.340Z,100498.91
2022-10-17T14:18:07.762Z,100496.36
2022-10-17T14:23:42.269Z,100498.80
2022-10-17T14:26:13.184Z,100496.50
2022-10-17T14:28:43.762Z,100497.41
2022-10-17T14:31:36.487Z,100494.50
2022-10-17T14:34:05.825Z,100497.27
2022-10-17T14:36:44.078Z,100498.40
2022-10-17T14:39:20.672Z,100499.33
2022-10-17T16:16:29.315Z,100518.40
2022-10-17T16:18:57.841Z,100520.89
2022-10-17T16:24:04.876Z,100524.15
2022-10-17T16:26:33.173Z,100525.61
2022-10-17T16:29:03.654Z,100524.40
2022-10-17T16:31:35.562Z,100522.66
2022-10-17T16:34:04.860Z,100521.30
2022-10-17T16:36:33.854Z,100521.52
2022-10-17T16:39:01.926Z,100519.80
2022-10-17T16:41:33.682Z,100518.11
2022-10-17T16:44:03.598Z,100512.51
2022-10-17T16:46:33.819Z,100513.81
2022-10-17T16:49:04.554Z,100513.88
2022-10-17T16:51:35.917Z,100513.76
2022-10-17T16:54:04.795Z,100515.05
2022-10-17T16:56:33.170Z,100516.17
2022-10-17T16:59:01.989Z,100515.52
2022-10-17T17:01:30.953Z,100516.65
2022-10-17T17:03:59.809Z,100515.48
2022-10-17T17:06:29.504Z,100517.28
2022-10-17T17:08:58.052Z,100516.03
2022-10-17T17:11:28.357Z,100513.05
2022-10-17T17:13:57.815Z,100511.86
2022-10-17T17:16:27.349Z,100512.73
2022-10-17T17:18:58.101Z,100508.54
2022-10-17T17:21:27.958Z,100511.17
2022-10-17T17:23:58.752Z,100509.45
2022-10-17T17:26:30.714Z,100508.08
2022-10-17T17:28:59.674Z,100506.17
2022-10-17T17:31:30.338Z,100506.58
2022-10-17T17:33:58.526Z,100509.98
2022-10-17T17:36:29.858Z,100510.20
2022-10-17T17:39:00.142Z,100509.34
2022-10-17T17:41:28.667Z,100507.30
2022-10-17T17:43:57.248Z,100505.41
2022-10-17T17:46:26.075Z,100507.41
2022-10-17T17:48:55.387Z,100507.45
2022-10-17T17:51:29.042Z,100508.55
2022-10-17T17:53:57.852Z,100510.16
2022-10-17T17:56:28.665Z,100508.73
2022-10-17T17:58:59.546Z,100511.73
2022-10-17T18:01:30.401Z,100506.84
2022-10-17T18:03:59.636Z,100510.91
2022-10-17T18:06:28.432Z,100510.73
2022-10-17T18:08:58.750Z,100510.41
2022-10-17T18:11:27.598Z,100506.91
2022-10-17T18:14:01.068Z,100509.92
2022-10-17T18:16:31.257Z,100509.44
2022-10-17T18:19:04.126Z,100509.50
2022-10-17T18:21:36.229Z,100509.89
2022-10-17T18:24:05.055Z,100503.60
2022-10-17T18:26:33.693Z,100503.99
2022-10-17T18:29:04.533Z,100505.61
2022-10-17T18:31:36.027Z,100510.06
2022-10-17T18:34:05.891Z,100510.64
2022-10-17T18:36:35.696Z,100514.19
2022-10-17T18:39:05.204Z,100513.64
2022-10-17T18:41:33.888Z,100513.13
2022-10-17T18:44:05.223Z,100512.98
2022-10-17T18:46:40.344Z,100518.43
2022-10-17T18:49:16.123Z,100515.81
2022-10-17T18:51:51.791Z,100518.65
2022-10-17T18:54:22.265Z,100519.19
2022-10-17T18:56:52.940Z,100519.38
2022-10-17T19:02:06.668Z,100521.73
2022-10-17T19:04:34.862Z,100520.36
2022-10-17T19:07:02.932Z,100517.20
2022-10-17T19:09:31.005Z,100514.27
2022-10-17T19:12:00.382Z,100514.66
2022-10-17T19:14:28.990Z,100513.63
2022-10-17T19:16:57.574Z,100511.55
2022-10-17T19:19:27.282Z,100511.00
2022-10-17T19:21:55.559Z,100512.59
2022-10-17T19:24:27.213Z,100516.48
2022-10-17T19:26:56.411Z,100513.49
2022-10-17T19:29:27.146Z,100518.11
2022-10-17T19:34:24.312Z,100521.30
2022-10-17T19:36:52.240Z,100523.95
2022-10-17T19:39:23.121Z,100522.21
2022-10-17T19:41:51.396Z,100524.34
2022-10-17T19:44:19.467Z,100519.96
2022-10-17T19:46:49.408Z,100515.42
2022-10-17T19:49:18.425Z,100515.10
2022-10-17T19:51:46.590Z,100520.92
2022-10-17T19:54:18.332Z,100517.06
2022-10-17T19:56:46.173Z,100518.98
2022-10-17T19:59:15.750Z,100520.94
2022-10-17T20:01:44.654Z,100522.52
2022-10-17T20:04:13.711Z,100517.23
2022-10-17T20:06:41.835Z,100523.03
2022-10-17T20:09:15.677Z,100520.41
2022-10-17T20:11:45.765Z,100519.36
2022-10-17T20:14:13.832Z,100515.86
2022-10-17T20:16:42.620Z,100514.10
2022-10-17T20:19:13.160Z,100512.19
2022-10-17T20:21:43.546Z,100509.22
2022-10-17T20:24:14.620Z,100509.58
2022-10-17T20:26:43.373Z,100512.59
2022-10-17T20:29:18.235Z,100514.73
2022-10-17T20:31:47.236Z,100506.31
2022-10-17T20:34:17.869Z,100512.84
2022-10-17T20:36:46.492Z,100505.61
2022-10-17T20:39:16.567Z,100502.45
2022-10-17T20:41:45.714Z,100504.92
2022-10-17T20:44:14.855Z,100504.90
2022-10-17T20:47:00.724Z,100509.12
2022-10-17T20:49:32.299Z,100514.93
2022-10-17T20:52:01.185Z,100513.36
2022-10-17T20:54:29.234Z,100514.59
2022-10-17T20:56:59.857Z,100513.73
2022-10-17T20:59:30.830Z,100509.16
2022-10-17T21:01:59.129Z,100508.66
2022-10-17T21:07:16.855Z,100506.26
2022-10-17T21:09:46.467Z,100506.58
2022-10-17T21:12:21.705Z,100502.56
2022-10-17T21:14:59.939Z,100501.51
2022-10-17T21:17:28.188Z,100500.27
2022-10-17T21:19:56.570Z,100499.39
2022-10-17T21:22:25.051Z,100499.75
2022-10-17T21:24:52.992Z,100496.94
2022-10-17T21:27:20.985Z,100496.25
2022-10-17T21:29:48.954Z,100496.63
2022-10-17T21:32:31.861Z,100492.94
2022-10-17T21:35:05.680Z,100492.27
2022-10-17T21:37:33.648Z,100492.83
2022-10-17T21:40:01.618Z,100497.40
2022-10-17T21:42:29.946Z,100493.56
2022-10-17T21:44:59.193Z,100494.46
2022-10-17T21:47:27.743Z,100493.94
2022-10-17T21:49:56.338Z,100494.66
2022-10-17T21:52:24.533Z,100494.11
2022-10-17T21:54:52.605Z,100491.48
2022-10-17T21:57:20.575Z,100487.80
2022-10-17T21:59:48.542Z,100485.00
2022-10-17T22:02:16.614Z,100484.30
2022-10-17T22:04:44.583Z,100483.08
2022-10-17T22:07:12.552Z,100481.17
2022-10-17T22:09:40.625Z,100478.73
2022-10-17T22:12:08.598Z,100475.05
2022-10-17T22:14:36.664Z,100473.66
2022-10-17T22:17:04.633Z,100471.57
2022-10-17T22:19:32.909Z,100475.10
2022-10-17T22:22:00.980Z,100473.88
2022-10-17T22:24:29.159Z,100467.23
2022-10-17T22:26:57.225Z,100465.49
2022-10-17T22:29:25.300Z,100465.64
2022-10-17T22:31:53.368Z,100463.01
2022-10-17T22:34:21.440Z,100459.67
2022-10-17T22:36:49.833Z,100456.88
2022-10-17T22:39:18.299Z,100456.34
2022-10-17T22:41:46.373Z,100455.81
2022-10-17T22:44:14.444Z,100452.66
2022-10-17T22:46:42.394Z,100451.45
2022-10-17T22:49:10.382Z,100455.68
2022-10-17T22:51:38.378Z,100451.64
2022-10-17T22:54:06.420Z,100451.48
2022-10-17T22:56:34.405Z,100452.38
2022-10-17T22:59:02.668Z,100452.56
2022-10-17T23:01:30.653Z,100450.30
2022-10-17T23:03:59.012Z,100449.93
2022-10-17T23:06:26.982Z,100448.54
2022-10-17T23:08:55.566Z,100442.59
2022-10-17T23:11:23.636Z,100444.86
2022-10-17T23:13:51.708Z,100437.83
2022-10-17T23:16:19.778Z,100434.14
2022-10-17T23:18:48.580Z,100432.56
2022-10-17T23:21:16.640Z,100435.38
2022-10-17T23:23:44.711Z,100429.07
2022-10-17T23:26:14.326Z,100430.84
2022-10-17T23:28:43.383Z,100431.55
2022-10-17T23:31:17.083Z,100428.77
2022-10-17T23:33:47.031Z,100423.70
2022-10-17T23:36:18.070Z,100421.94
2022-10-17T23:38:47.062Z,100420.88
2022-10-17T23:41:15.443Z,100416.83
2022-10-17T23:43:44.348Z,100418.24
2022-10-17T23:46:12.815Z,100413.17
2022-10-17T23:48:41.529Z,100412.45
2022-10-17T23:51:10.806Z,100409.64
2022-10-17T23:53:40.000Z,100408.59
2022-10-17T23:56:09.574Z,100403.52
2022-10-17T23:58:39.009Z,100400.37
